createdAt,value
2023-02-03T00:02:09.603Z,101888.69
2023-02-03T00:04:36.154Z,101876.94
2023-02-03T00:07:02.837Z,101874.94
2023-02-03T00:09:29.669Z,101869.69
2023-02-03T00:11:56.256Z,101875.22
2023-02-03T00:14:22.792Z,101865.53
2023-02-03T00:16:50.862Z,101838.00
2023-02-03T00:19:17.821Z,101826.69
2023-02-03T00:21:44.669Z,101831.59
2023-02-03T00:24:11.267Z,101833.16
2023-02-03T00:26:41.775Z,101842.03
2023-02-03T00:29:08.362Z,101828.56
2023-02-03T00:31:35.222Z,101830.56
2023-02-03T00:34:03.240Z,101829.03
2023-02-03T00:36:29.890Z,101765.44
2023-02-03T00:38:56.575Z,101821.97
2023-02-03T00:41:23.550Z,101821.72
2023-02-03T00:43:51.551Z,101814.38
2023-02-03T00:46:18.445Z,101770.34
2023-02-03T00:48:45.021Z,101808.56
2023-02-03T00:51:14.253Z,101811.91
2023-02-03T00:53:40.808Z,101806.84
2023-02-03T00:56:07.468Z,101812.69
2023-02-03T00:58:34.025Z,101801.78
2023-02-03T01:01:03.176Z,101803.09
2023-02-03T01:03:29.775Z,101814.00
2023-02-03T01:05:56.527Z,101805.16
2023-02-03T01:08:24.421Z,101786.63
2023-02-03T01:10:50.948Z,101797.16
2023-02-03T01:13:17.483Z,101799.78
2023-02-03T01:15:47.494Z,101764.25
2023-02-03T01:18:14.531Z,101796.31
2023-02-03T01:20:41.076Z,101800.47
2023-02-03T01:23:07.613Z,101794.91
2023-02-03T01:25:36.408Z,101795.94
2023-02-03T01:28:03.097Z,101794.13
2023-02-03T01:30:30.027Z,101794.34
2023-02-03T01:32:56.928Z,101800.63
2023-02-03T01:35:24.946Z,101808.53
2023-02-03T01:37:51.675Z,101798.13
2023-02-03T01:40:18.977Z,101817.97
2023-02-03T01:42:47.045Z,101826.59
2023-02-03T01:45:13.885Z,101836.19
2023-02-03T01:47:46.449Z,101825.66
2023-02-03T01:50:17.389Z,101843.81
2023-02-03T01:52:48.412Z,101834.50
2023-02-03T01:55:19.455Z,101827.72
2023-02-03T01:57:52.151Z,101832.25
2023-02-03T02:00:19.493Z,101832.72
2023-02-03T02:02:49.041Z,101841.09
2023-02-03T02:05:22.677Z,101836.97
2023-02-03T02:07:49.887Z,101842.97
2023-02-03T02:10:17.354Z,101838.91
2023-02-03T02:12:44.264Z,101856.59
2023-02-03T02:15:12.631Z,101850.97
2023-02-03T02:18:06.284Z,101847.22
2023-02-03T02:20:59.868Z,101831.50
2023-02-03T02:23:49.677Z,101817.75
2023-02-03T02:26:39.546Z,101832.06
2023-02-03T02:29:28.378Z,101823.41
2023-02-03T02:32:14.553Z,101831.59
2023-02-03T02:34:52.506Z,101808.75
2023-02-03T02:37:26.427Z,101748.53
2023-02-03T02:39:58.707Z,101827.38
2023-02-03T02:42:34.167Z,101824.59
2023-02-03T02:45:09.021Z,101805.53
2023-02-03T02:47:38.256Z,101816.06
2023-02-03T02:50:14.102Z,101803.81
2023-02-03T02:52:46.163Z,101788.88
2023-02-03T02:55:16.510Z,101781.19
2023-02-03T02:57:44.423Z,101779.19
2023-02-03T03:00:12.594Z,101779.47
2023-02-03T03:02:40.960Z,101791.97
2023-02-03T03:05:11.713Z,101783.81
2023-02-03T03:07:48.114Z,101762.44
2023-02-03T03:10:18.604Z,101788.03
2023-02-03T03:12:50.424Z,101798.56
2023-02-03T03:15:24.867Z,101813.81
2023-02-03T03:17:58.841Z,101789.91
2023-02-03T03:20:27.914Z,101792.75
2023-02-03T03:22:58.821Z,101779.84
2023-02-03T03:25:30.179Z,101761.34
2023-02-03T03:27:59.336Z,101796.97
2023-02-03T03:30:29.191Z,101752.03
2023-02-03T03:32:57.370Z,101766.69
2023-02-03T03:35:28.500Z,101783.97
2023-02-03T03:37:59.962Z,101786.53
2023-02-03T03:40:31.611Z,101771.75
2023-02-03T03:43:02.315Z,101754.16
2023-02-03T03:45:35.578Z,101788.22
2023-02-03T03:48:08.431Z,101797.81
2023-02-03T03:50:39.129Z,101809.94
2023-02-03T03:53:09.118Z,101799.41
2023-02-03T03:55:37.229Z,101800.47
2023-02-03T03:58:07.710Z,101803.53
2023-02-03T04:00:37.369Z,101815.13
2023-02-03T04:03:11.658Z,101793.38
2023-02-03T04:05:39.516Z,101800.47
2023-02-03T04:08:06.219Z,101780.31
2023-02-03T04:10:34.483Z,101790.00
2023-02-03T04:13:01.824Z,101786.44
2023-02-03T04:15:28.515Z,101788.59
2023-02-03T04:17:55.086Z,101775.69
2023-02-03T04:20:24.041Z,101806.00
2023-02-03T04:22:51.645Z,101777.69
2023-02-03T04:25:18.296Z,101793.28
2023-02-03T04:27:44.872Z,101774.75
2023-02-03T04:30:12.586Z,101765.25
2023-02-03T04:32:39.284Z,101763.28
2023-02-03T04:35:07.107Z,101721.28
2023-02-03T04:37:35.045Z,101760.03
2023-02-03T04:40:01.891Z,101773.53
2023-02-03T04:42:29.041Z,101728.34
2023-02-03T04:44:55.681Z,101779.56
2023-02-03T04:47:22.386Z,101776.84
2023-02-03T04:49:48.963Z,101741.84
2023-02-03T04:52:15.883Z,101757.09
2023-02-03T04:54:44.006Z,101742.50
2023-02-03T04:57:10.583Z,101761.03
2023-02-03T04:59:37.303Z,101758.50
2023-02-03T05:02:04.000Z,101737.44
2023-02-03T05:04:30.717Z,101751.06
2023-02-03T05:06:57.384Z,101763.75
2023-02-03T05:09:24.118Z,101774.28
2023-02-03T05:11:52.550Z,101764.78
2023-02-03T05:14:19.488Z,101768.25
2023-02-03T05:16:46.522Z,101767.34
2023-02-03T05:19:13.457Z,101763.94
2023-02-03T05:21:40.110Z,101751.53
2023-02-03T05:24:07.240Z,101743.75
2023-02-03T05:26:34.173Z,101778.91
2023-02-03T05:29:02.570Z,101768.31
2023-02-03T05:31:29.220Z,101768.38
2023-02-03T05:33:55.805Z,101775.53
2023-02-03T05:36:22.307Z,101762.34
2023-02-03T05:38:49.709Z,101748.34
2023-02-03T05:41:16.238Z,101758.66
2023-02-03T05:43:42.946Z,101754.16
2023-02-03T05:46:11.139Z,101763.94
2023-02-03T05:48:37.728Z,101767.25
2023-02-03T05:51:04.559Z,101769.03
2023-02-03T05:53:31.164Z,101753.41
2023-02-03T05:55:57.642Z,101749.56
2023-02-03T05:58:24.179Z,101743.16
2023-02-03T06:00:51.852Z,101750.75
2023-02-03T06:03:19.840Z,101749.66
2023-02-03T06:05:46.365Z,101743.53
2023-02-03T06:08:12.910Z,101749.09
2023-02-03T06:10:39.475Z,101753.22
2023-02-03T06:13:10.402Z,101752.38
2023-02-03T06:15:36.982Z,101750.69
2023-02-03T06:18:03.716Z,101758.41
2023-02-03T06:20:31.846Z,101766.56
2023-02-03T06:22:58.384Z,101773.44
2023-02-03T06:25:24.953Z,101760.41
2023-02-03T06:27:51.571Z,101774.22
2023-02-03T06:30:18.424Z,101770.56
2023-02-03T06:32:45.333Z,101785.13
2023-02-03T06:35:11.974Z,101774.94
2023-02-03T06:37:39.872Z,101764.31
2023-02-03T06:40:07.299Z,101758.31
2023-02-03T06:42:34.063Z,101743.53
2023-02-03T06:45:00.703Z,101777.78
2023-02-03T06:47:27.313Z,101772.22
2023-02-03T06:49:54.029Z,101788.88
2023-02-03T06:52:20.647Z,101800.56
2023-02-03T06:54:48.595Z,101795.00
2023-02-03T06:57:15.283Z,101795.63
2023-02-03T06:59:42.058Z,101781.34
2023-02-03T07:02:10.107Z,101782.56
2023-02-03T07:04:36.886Z,101777.03
2023-02-03T07:07:03.411Z,101771.56
2023-02-03T07:09:30.106Z,101738.88
2023-02-03T07:11:57.999Z,101785.22
2023-02-03T07:14:24.575Z,101774.47
2023-02-03T07:16:51.286Z,101769.19
2023-02-03T07:19:17.878Z,101772.97
2023-02-03T07:21:44.563Z,101778.88
2023-02-03T07:24:11.174Z,101770.91
2023-02-03T07:26:37.895Z,101785.75
2023-02-03T07:29:06.224Z,101781.25
2023-02-03T07:31:32.903Z,101784.53
2023-02-03T07:33:59.561Z,101751.44
2023-02-03T07:36:26.125Z,101783.22
2023-02-03T07:38:52.741Z,101782.66
2023-02-03T07:41:19.227Z,101783.59
2023-02-03T07:43:45.832Z,101802.41
2023-02-03T07:46:13.809Z,101801.09
2023-02-03T07:48:40.688Z,101809.19
2023-02-03T07:51:07.392Z,101791.50
2023-02-03T07:53:33.971Z,101805.53
2023-02-03T07:56:00.872Z,101801.94
2023-02-03T07:58:27.682Z,101794.13
2023-02-03T08:00:54.185Z,101794.59
2023-02-03T08:03:22.123Z,101797.88
2023-02-03T08:05:48.641Z,101806.84
2023-02-03T08:08:15.891Z,101813.59
2023-02-03T08:10:42.395Z,101810.28
2023-02-03T08:13:08.971Z,101809.72
2023-02-03T08:15:35.497Z,101806.22
2023-02-03T08:18:02.075Z,101806.53
2023-02-03T08:20:30.432Z,101800.59
2023-02-03T08:22:57.235Z,101813.38
2023-02-03T08:25:23.712Z,101808.31
2023-02-03T08:27:50.466Z,101804.44
2023-02-03T08:30:16.983Z,101802.84
2023-02-03T08:32:43.504Z,101790.03
2023-02-03T08:35:10.002Z,101797.16
2023-02-03T08:37:38.004Z,101805.28
2023-02-03T08:40:05.686Z,101814.81
2023-02-03T08:42:32.466Z,101820.63
2023-02-03T08:44:59.028Z,101825.06
2023-02-03T08:47:26.337Z,101799.75
2023-02-03T08:49:53.114Z,101807.72
2023-02-03T08:52:19.673Z,101822.88
2023-02-03T08:54:48.043Z,101821.25
2023-02-03T08:57:14.689Z,101815.81
2023-02-03T08:59:43.009Z,101827.22
2023-02-03T09:02:14.320Z,101826.06
2023-02-03T09:04:40.997Z,101832.63
2023-02-03T09:07:07.550Z,101825.00
2023-02-03T09:09:34.399Z,101827.44
2023-02-03T09:12:05.851Z,101819.06
2023-02-03T09:14:33.297Z,101821.03
2023-02-03T09:17:00.609Z,101816.31
2023-02-03T09:19:27.218Z,101820.19
2023-02-03T09:21:53.802Z,101836.22
2023-02-03T09:24:20.635Z,101823.38
2023-02-03T09:26:47.130Z,101825.81
2023-02-03T09:29:15.335Z,101829.22
2023-02-03T09:31:41.852Z,101830.44
2023-02-03T09:34:08.443Z,101827.34
2023-02-03T09:36:35.233Z,101821.31
2023-02-03T09:39:02.032Z,101796.34
2023-02-03T09:41:48.436Z,101810.78
2023-02-03T09:44:21.714Z,101806.13
2023-02-03T09:46:52.977Z,101819.63
2023-02-03T09:49:25.612Z,101826.91
2023-02-03T09:51:58.491Z,101801.84
2023-02-03T09:54:33.354Z,101815.22
2023-02-03T09:57:04.917Z,101797.59
2023-02-03T09:59:34.906Z,101773.19
2023-02-03T10:02:12.459Z,101798.44
2023-02-03T10:04:44.047Z,101788.06
2023-02-03T10:07:18.351Z,101806.91
2023-02-03T10:09:56.231Z,101795.25
2023-02-03T10:12:40.111Z,101812.94
2023-02-03T10:15:30.636Z,101817.34
2023-02-03T10:18:03.588Z,101832.63
2023-02-03T10:20:35.584Z,101828.75
2023-02-03T10:23:06.961Z,101834.88
2023-02-03T10:25:38.409Z,101837.41
2023-02-03T10:28:12.001Z,101840.53
2023-02-03T10:30:44.344Z,101850.25
2023-02-03T10:33:13.056Z,101844.16
2023-02-03T10:35:48.876Z,101856.38
2023-02-03T10:38:23.955Z,101872.28
2023-02-03T10:40:50.625Z,101847.59
2023-02-03T10:43:17.163Z,101840.41
2023-02-03T10:45:45.095Z,101843.81
2023-02-03T10:48:15.753Z,101842.34
2023-02-03T10:50:46.484Z,101836.66
2023-02-03T10:53:22.197Z,101835.91
2023-02-03T10:55:51.001Z,101812.38
2023-02-03T10:58:26.265Z,101834.13
2023-02-03T11:00:58.625Z,101829.59
2023-02-03T11:03:27.977Z,101828.94
2023-02-03T11:06:06.316Z,101819.91
2023-02-03T11:08:34.208Z,101821.69
2023-02-03T11:11:05.715Z,101813.47
2023-02-03T11:13:32.729Z,101826.69
2023-02-03T11:16:03.011Z,101821.69
2023-02-03T11:18:39.107Z,101806.50
2023-02-03T11:21:11.901Z,101815.22
2023-02-03T11:23:50.352Z,101837.50
2023-02-03T11:26:21.020Z,101807.75
2023-02-03T11:28:50.118Z,101811.69
2023-02-03T11:31:24.911Z,101801.88
2023-02-03T11:33:56.725Z,101820.81
2023-02-03T11:36:26.626Z,101804.97
2023-02-03T11:39:08.499Z,101737.44
2023-02-03T11:41:37.333Z,101802.97
2023-02-03T11:44:11.218Z,101804.13
2023-02-03T11:46:40.296Z,101791.97
2023-02-03T11:49:29.636Z,101811.19
2023-02-03T11:52:02.269Z,101810.13
2023-02-03T11:54:37.592Z,101809.63
2023-02-03T11:57:23.809Z,101810.66
2023-02-03T12:00:02.293Z,101809.03
2023-02-03T12:02:58.115Z,101830.44
2023-02-03T12:05:40.414Z,101806.41
2023-02-03T12:08:21.121Z,101809.97
2023-02-03T12:11:04.985Z,101824.25
2023-02-03T12:13:52.356Z,101801.66
2023-02-03T12:16:40.511Z,101808.00
2023-02-03T12:19:18.878Z,101812.13
2023-02-03T12:21:47.142Z,101813.97
2023-02-03T12:24:24.545Z,101794.03
2023-02-03T12:27:03.053Z,101809.97
2023-02-03T12:29:34.343Z,101812.53
2023-02-03T12:32:09.849Z,101775.19
2023-02-03T12:34:41.301Z,101808.69
2023-02-03T12:37:13.713Z,101797.94
2023-02-03T12:39:45.242Z,101801.97
2023-02-03T12:42:18.935Z,101813.91
2023-02-03T12:44:51.731Z,101805.47
2023-02-03T12:47:25.953Z,101770.69
2023-02-03T12:49:57.979Z,101806.94
2023-02-03T12:52:30.727Z,101807.78
2023-02-03T12:55:07.606Z,101797.47
2023-02-03T12:57:38.040Z,101770.31
2023-02-03T13:00:16.361Z,101807.75
2023-02-03T13:02:52.904Z,101787.84
2023-02-03T13:05:24.856Z,101798.09
2023-02-03T13:07:59.423Z,101795.53
2023-02-03T13:10:31.599Z,101805.91
2023-02-03T13:12:59.166Z,101785.00
2023-02-03T13:15:30.302Z,101799.47
2023-02-03T13:18:03.906Z,101798.53
2023-02-03T13:20:33.687Z,101800.63
2023-02-03T13:23:01.215Z,101796.44
2023-02-03T13:25:38.323Z,101763.22
2023-02-03T13:28:17.727Z,101749.94
2023-02-03T13:30:55.483Z,101793.44
2023-02-03T13:33:49.596Z,101801.66
2023-02-03T13:36:37.395Z,101760.78
2023-02-03T13:39:27.745Z,101796.09
2023-02-03T13:42:07.648Z,101784.59
2023-02-03T13:44:36.905Z,101792.91
2023-02-03T13:47:04.015Z,101788.47
2023-02-03T13:49:35.844Z,101804.13
2023-02-03T13:52:03.861Z,101805.66
2023-02-03T13:54:34.488Z,101772.63
2023-02-03T13:57:03.154Z,101804.41
2023-02-03T13:59:41.337Z,101805.03
2023-02-03T14:02:30.703Z,101813.56
2023-02-03T14:04:58.573Z,101814.97
2023-02-03T14:07:32.221Z,101783.06
2023-02-03T14:10:21.596Z,101804.91
2023-02-03T14:12:58.879Z,101806.84
2023-02-03T14:15:31.725Z,101814.13
2023-02-03T14:18:18.259Z,101778.47
2023-02-03T14:21:10.437Z,101800.94
2023-02-03T14:23:44.256Z,101807.53
2023-02-03T14:26:19.224Z,101778.22
2023-02-03T14:28:47.759Z,101827.31
2023-02-03T14:31:19.175Z,101821.09
2023-02-03T14:34:06.179Z,101800.25
2023-02-03T14:36:40.159Z,101831.75
2023-02-03T14:40:07.432Z,101834.19
2023-02-03T14:43:09.969Z,101831.25
2023-02-03T14:46:25.844Z,101799.94
2023-02-03T14:49:09.872Z,101792.88
2023-02-03T14:51:57.723Z,101828.72
2023-02-03T14:54:46.479Z,101822.03
2023-02-03T14:57:29.955Z,101780.50
2023-02-03T15:00:00.819Z,101820.91
2023-02-03T15:02:29.344Z,101759.97
2023-02-03T15:05:29.824Z,101813.84
2023-02-03T15:07:56.736Z,101821.03
2023-02-03T15:10:29.166Z,101838.88
2023-02-03T15:12:58.166Z,101843.28
2023-02-03T15:15:26.882Z,101831.63
2023-02-03T15:17:56.273Z,101838.69
2023-02-03T15:20:30.778Z,101811.97
2023-02-03T15:22:57.681Z,101858.19
2023-02-03T15:25:25.911Z,101853.84
2023-02-03T15:27:52.944Z,101860.50
2023-02-03T15:30:25.806Z,101819.50
2023-02-03T15:33:01.778Z,101863.91
2023-02-03T15:35:32.118Z,101864.66
2023-02-03T15:38:02.467Z,101871.91
2023-02-03T15:40:37.732Z,101862.50
2023-02-03T15:43:10.926Z,101863.91
2023-02-03T15:45:41.867Z,101797.63
2023-02-03T15:48:16.328Z,101865.69
2023-02-03T15:50:46.838Z,101836.72
2023-02-03T15:53:21.059Z,101872.84
2023-02-03T15:55:50.884Z,101870.22
2023-02-03T15:58:20.318Z,101880.13
2023-02-03T16:00:52.380Z,101875.47
2023-02-03T16:03:23.604Z,101815.94
2023-02-03T16:05:50.607Z,101883.69
2023-02-03T16:08:37.625Z,101878.97
2023-02-03T16:11:23.434Z,101884.16
2023-02-03T16:13:50.172Z,101884.44
2023-02-03T16:16:22.048Z,101893.84
2023-02-03T16:18:53.806Z,101894.16
2023-02-03T16:21:30.158Z,101894.91
2023-02-03T16:23:57.327Z,101911.56
2023-02-03T16:26:28.723Z,101912.22
2023-02-03T16:28:57.180Z,101920.22
2023-02-03T16:31:25.426Z,101918.25
2023-02-03T16:33:52.051Z,101936.59
2023-02-03T16:36:18.545Z,101936.50
2023-02-03T16:38:45.541Z,101951.69
2023-02-03T16:41:17.207Z,101949.13
2023-02-03T16:43:44.120Z,101945.19
2023-02-03T16:46:12.212Z,101940.13
2023-02-03T16:48:40.521Z,101945.75
2023-02-03T16:51:12.444Z,101947.25
2023-02-03T16:53:39.146Z,101953.00
2023-02-03T16:56:06.307Z,101950.56
2023-02-03T16:58:33.006Z,101944.16
2023-02-03T17:01:01.258Z,101950.56
2023-02-03T17:03:28.913Z,101949.88
2023-02-03T17:05:57.244Z,101951.94
2023-02-03T17:08:25.499Z,101956.66
2023-02-03T17:10:52.096Z,101955.16
2023-02-03T17:13:21.177Z,101947.06
2023-02-03T17:15:50.170Z,101968.50
2023-02-03T17:18:16.922Z,101972.06
2023-02-03T17:20:44.953Z,101974.53
2023-02-03T17:23:14.032Z,101967.16
2023-02-03T17:25:40.654Z,101970.84
2023-02-03T17:28:09.018Z,101981.88
2023-02-03T17:30:36.170Z,101974.72
2023-02-03T17:33:05.101Z,101970.97
2023-02-03T17:35:31.938Z,101974.63
2023-02-03T17:37:58.653Z,101989.41
2023-02-03T17:54:11.526Z,101991.09
2023-02-03T17:56:39.549Z,101996.00
2023-02-03T17:59:06.107Z,101998.97
2023-02-03T18:01:32.822Z,102005.00
2023-02-03T18:04:01.156Z,101998.06
2023-02-03T18:06:29.383Z,101998.22
2023-02-03T18:08:56.544Z,101998.31
2023-02-03T18:11:23.054Z,102013.38
2023-02-03T18:13:50.974Z,102015.22
2023-02-03T18:16:19.513Z,102019.72
2023-02-03T18:18:46.142Z,102020.00
2023-02-03T18:21:14.346Z,102022.00
2023-02-03T18:23:41.765Z,102004.41
2023-02-03T18:26:10.311Z,102033.63
2023-02-03T18:28:37.624Z,102031.41
2023-02-03T18:31:07.668Z,102037.66
2023-02-03T18:33:35.632Z,102051.81
2023-02-03T18:36:03.008Z,102057.00
2023-02-03T18:38:30.941Z,102053.09
2023-02-03T18:40:57.434Z,102020.50
2023-02-03T18:43:24.055Z,102051.50
2023-02-03T18:45:50.772Z,102056.84
2023-02-03T18:48:18.677Z,102046.97
2023-02-03T18:50:45.156Z,102054.03
2023-02-03T18:53:11.873Z,102050.53
2023-02-03T18:55:40.670Z,102039.38
2023-02-03T18:58:07.250Z,102051.16
2023-02-03T19:00:33.780Z,102047.34
2023-02-03T19:03:00.698Z,102073.91
2023-02-03T19:05:28.592Z,102079.34
2023-02-03T19:07:55.197Z,102076.88
2023-02-03T19:10:21.704Z,102079.44
2023-02-03T19:12:48.320Z,102074.06
2023-02-03T19:15:14.909Z,102081.75
2023-02-03T19:17:41.444Z,102087.00
2023-02-03T19:20:10.113Z,102083.78
2023-02-03T19:22:38.132Z,102083.00
2023-02-03T19:25:05.361Z,102091.16
2023-02-03T19:27:31.951Z,102091.25
2023-02-03T19:29:58.524Z,102101.25
2023-02-03T19:32:25.245Z,102108.09
2023-02-03T19:34:51.796Z,102111.06
2023-02-03T19:37:18.433Z,102100.25
2023-02-03T19:39:46.253Z,102115.91
2023-02-03T19:42:12.976Z,102116.03
2023-02-03T19:44:39.490Z,102118.66
2023-02-03T19:47:06.300Z,102116.75
2023-02-03T19:49:32.793Z,102131.41
2023-02-03T19:51:59.652Z,102122.94
2023-02-03T19:54:26.386Z,102133.28
2023-02-03T19:56:54.303Z,102126.22
2023-02-03T19:59:20.844Z,102113.75
2023-02-03T20:01:47.573Z,102134.31
2023-02-03T20:04:14.126Z,102128.28
2023-02-03T20:06:40.696Z,102130.03
2023-02-03T20:09:07.236Z,102139.31
2023-02-03T20:11:33.923Z,102144.47
2023-02-03T20:14:01.832Z,102147.84
2023-02-03T20:16:28.463Z,102149.53
2023-02-03T20:18:55.081Z,102150.53
2023-02-03T20:21:21.696Z,102148.53
2023-02-03T20:23:48.208Z,102140.41
2023-02-03T20:26:14.798Z,102146.50
2023-02-03T20:28:41.316Z,102139.28
2023-02-03T20:31:09.348Z,102140.31
2023-02-03T20:33:36.017Z,102120.69
2023-02-03T20:36:02.666Z,102147.88
2023-02-03T20:38:29.160Z,102145.91
2023-02-03T20:40:55.794Z,102152.03
2023-02-03T20:43:24.863Z,102150.19
2023-02-03T20:45:52.117Z,102107.16
2023-02-03T20:48:22.069Z,102154.19
2023-02-03T20:50:49.189Z,102145.00
2023-02-03T20:53:17.756Z,102167.34
2023-02-03T20:55:45.027Z,102146.78
2023-02-03T20:58:16.898Z,102161.22
2023-02-03T21:00:43.887Z,102161.03
2023-02-03T21:03:11.540Z,102168.00
2023-02-03T21:05:42.639Z,102148.22
2023-02-03T21:08:13.088Z,102163.69
2023-02-03T21:10:39.998Z,102174.22
2023-02-03T21:13:18.001Z,102170.56
2023-02-03T21:15:44.760Z,102181.25
2023-02-03T21:18:27.519Z,102180.41
2023-02-03T21:20:55.542Z,102183.47
2023-02-03T21:23:25.598Z,102196.13
2023-02-03T21:25:52.471Z,102194.41
2023-02-03T21:28:24.258Z,102189.94
2023-02-03T21:30:50.719Z,102185.06
2023-02-03T21:33:29.678Z,102190.25
2023-02-03T21:35:57.710Z,102194.16
2023-02-03T21:38:29.502Z,102198.69
2023-02-03T21:40:56.133Z,102202.25
2023-02-03T21:43:22.907Z,102182.19
2023-02-03T21:45:50.988Z,102157.19
2023-02-03T21:48:27.137Z,102193.03
2023-02-03T21:50:55.723Z,102200.09
2023-02-03T21:53:27.218Z,102202.84
2023-02-03T21:55:54.585Z,102189.16
2023-02-03T21:58:23.726Z,102211.31
2023-02-03T22:00:51.087Z,102218.44
2023-02-03T22:03:24.328Z,102202.31
2023-02-03T22:05:50.917Z,102206.00
2023-02-03T22:08:18.400Z,102211.13
2023-02-03T22:10:47.081Z,102217.31
2023-02-03T22:13:14.030Z,102201.06
2023-02-03T22:15:41.299Z,102199.28
2023-02-03T22:18:08.138Z,102219.03
2023-02-03T22:20:35.024Z,102218.09
2023-02-03T22:23:01.627Z,102225.28
2023-02-03T22:25:28.574Z,102223.44
2023-02-03T22:27:56.511Z,102222.06
2023-02-03T22:30:23.122Z,102237.72
2023-02-03T22:32:49.637Z,102244.75
2023-02-03T22:35:16.262Z,102243.81
2023-02-03T22:37:42.774Z,102246.34
2023-02-03T22:40:11.033Z,102243.19
2023-02-03T22:42:37.583Z,102252.72
2023-02-03T22:45:07.057Z,102251.94
2023-02-03T22:47:33.794Z,102259.09
2023-02-03T22:50:00.395Z,102253.97
2023-02-03T22:52:27.074Z,102256.34
2023-02-03T22:54:53.716Z,102268.25
2023-02-03T22:57:20.224Z,102274.69
2023-02-03T22:59:46.887Z,102271.06
2023-02-03T23:02:14.842Z,102267.47
2023-02-03T23:04:41.545Z,102269.06
2023-02-03T23:07:08.295Z,102256.41
2023-02-03T23:09:34.940Z,102274.34
2023-02-03T23:12:01.469Z,102267.34
2023-02-03T23:14:28.135Z,102306.25
2023-02-03T23:16:54.808Z,102305.59
2023-02-03T23:19:22.817Z,102305.34
2023-02-03T23:21:49.362Z,102292.31
2023-02-03T23:24:16.186Z,102309.28
2023-02-03T23:26:42.753Z,102318.84
2023-02-03T23:29:09.409Z,102315.50
2023-02-03T23:31:36.104Z,102306.03
2023-02-03T23:34:03.030Z,102292.19
2023-02-03T23:36:31.132Z,102253.25
2023-02-03T23:38:57.914Z,102302.63
2023-02-03T23:41:24.468Z,102301.94
2023-02-03T23:43:51.090Z,102308.09
2023-02-03T23:46:17.678Z,102316.78
2023-02-03T23:48:44.247Z,102306.41
2023-02-03T23:51:10.854Z,102265.00
2023-02-03T23:53:39.030Z,102320.50
2023-02-03T23:56:05.896Z,102317.88
2023-02-03T23:58:32.501Z,102260.28
